EAL8 SEGU-KMIA
Flight info
| Callsign | EAL8 |
|---|---|
| Flight time | N/A |
| Altitude | 32000 |
| Route | TOLAV2 UGUPI UL780 BUXOS/N0507F340 UL780 TBG UL465 ARNAL/N0499F360 UL465 GCM UG448 ATUVI/N0494F370 DCT XOPLI/N0497F360 UG448 IKBIX SNDBR3 |
| Aircraft | L101/H-SDFGHIRWXY/S |
Departure
| Time | N/A |
|---|---|
| Airport | José Joaquín de Olmedo International Airport (SEGU) |
Arrival
| Time | 2026-05-07 07:13 |
|---|---|
| Airport | Miami International Airport (KMIA) |
| Time | Latitude | Longitude | Altitude | Speed | Heading |
|---|---|---|---|---|---|
| 2026-05-07 05:10 | 6.57039 | -79.62672 | 35927 ft | 481 kts | 1° |
| 2026-05-07 05:10 | 6.60382 | -79.62579 | 35988 ft | 480 kts | 1° |
| 2026-05-07 05:11 | 6.67048 | -79.62393 | 36000 ft | 480 kts | 1° |
| 2026-05-07 05:11 | 6.72138 | -79.62251 | 35999 ft | 480 kts | 1° |
| 2026-05-07 05:12 | 6.78808 | -79.62063 | 35999 ft | 480 kts | 1° |
| 2026-05-07 05:12 | 6.85484 | -79.61875 | 35999 ft | 480 kts | 1° |
| 2026-05-07 05:13 | 6.92175 | -79.61686 | 35999 ft | 481 kts | 1° |
| 2026-05-07 05:13 | 6.98849 | -79.61497 | 35999 ft | 481 kts | 1° |
| 2026-05-07 05:14 | 7.05562 | -79.61307 | 36000 ft | 485 kts | 1° |
| 2026-05-07 05:14 | 7.12307 | -79.61116 | 35999 ft | 487 kts | 1° |
| 2026-05-07 05:15 | 7.19098 | -79.60923 | 35999 ft | 491 kts | 1° |
| 2026-05-07 05:15 | 7.25939 | -79.60729 | 36001 ft | 493 kts | 1° |
| 2026-05-07 05:16 | 7.32714 | -79.60042 | 36153 ft | 490 kts | 17° |
| 2026-05-07 05:16 | 7.39364 | -79.58595 | 36054 ft | 494 kts | 5° |
| 2026-05-07 05:17 | 7.46220 | -79.58341 | 35943 ft | 493 kts | 360° |
| 2026-05-07 05:17 | 7.53078 | -79.58478 | 35850 ft | 494 kts | 358° |
| 2026-05-07 05:18 | 7.59935 | -79.58666 | 35826 ft | 493 kts | 359° |
| 2026-05-07 05:18 | 7.66801 | -79.58793 | 35872 ft | 493 kts | 359° |
| 2026-05-07 05:19 | 7.73643 | -79.58836 | 35966 ft | 493 kts | 360° |
| 2026-05-07 05:19 | 7.80517 | -79.58807 | 35999 ft | 494 kts | 0° |
| 2026-05-07 05:20 | 7.87378 | -79.58721 | 35999 ft | 494 kts | 1° |
| 2026-05-07 05:20 | 7.94241 | -79.58593 | 35999 ft | 494 kts | 1° |
| 2026-05-07 05:21 | 8.04560 | -79.58352 | 35999 ft | 495 kts | 1° |
| 2026-05-07 05:22 | 8.11437 | -79.58172 | 35999 ft | 495 kts | 1° |
| 2026-05-07 05:22 | 8.18305 | -79.57982 | 35998 ft | 495 kts | 2° |
| 2026-05-07 05:23 | 8.25189 | -79.57785 | 35998 ft | 495 kts | 2° |
| 2026-05-07 05:23 | 8.32093 | -79.57585 | 35997 ft | 497 kts | 2° |
| 2026-05-07 05:24 | 8.38998 | -79.57382 | 35997 ft | 499 kts | 2° |
| 2026-05-07 05:24 | 8.45951 | -79.57176 | 35996 ft | 501 kts | 2° |
| 2026-05-07 05:25 | 8.52945 | -79.56968 | 35995 ft | 506 kts | 1° |
| 2026-05-07 05:25 | 8.60013 | -79.56757 | 35996 ft | 510 kts | 1° |
| 2026-05-07 05:26 | 8.67107 | -79.56546 | 35996 ft | 512 kts | 1° |
| 2026-05-07 05:26 | 8.74241 | -79.56335 | 35995 ft | 513 kts | 1° |
| 2026-05-07 05:27 | 8.81361 | -79.56639 | 35996 ft | 514 kts | 354° |
| 2026-05-07 05:27 | 8.88451 | -79.57561 | 35996 ft | 514 kts | 351° |
| 2026-05-07 05:28 | 8.95505 | -79.58723 | 35993 ft | 514 kts | 350° |
| 2026-05-07 05:28 | 9.02550 | -79.59969 | 35995 ft | 515 kts | 349° |
| 2026-05-07 05:29 | 9.09592 | -79.61232 | 35992 ft | 515 kts | 349° |
| 2026-05-07 05:29 | 9.16635 | -79.62490 | 35989 ft | 515 kts | 349° |
| 2026-05-07 05:30 | 9.23706 | -79.63740 | 35986 ft | 516 kts | 349° |
| 2026-05-07 05:30 | 9.30766 | -79.64977 | 35981 ft | 516 kts | 349° |
| 2026-05-07 05:31 | 9.37830 | -79.66204 | 35984 ft | 516 kts | 348° |
| 2026-05-07 05:31 | 9.44906 | -79.67427 | 35982 ft | 516 kts | 348° |
| 2026-05-07 05:32 | 9.51980 | -79.68645 | 35983 ft | 516 kts | 348° |
| 2026-05-07 05:32 | 9.59062 | -79.69861 | 35991 ft | 517 kts | 348° |
| 2026-05-07 05:33 | 9.66165 | -79.71078 | 35989 ft | 518 kts | 348° |
| 2026-05-07 05:33 | 9.73250 | -79.72292 | 35989 ft | 518 kts | 348° |
| 2026-05-07 05:34 | 9.80356 | -79.73508 | 35988 ft | 518 kts | 348° |
| 2026-05-07 05:34 | 9.87442 | -79.74721 | 35988 ft | 518 kts | 348° |
| 2026-05-07 05:35 | 9.94529 | -79.75934 | 35987 ft | 518 kts | 348° |
| 2026-05-07 05:35 | 10.01625 | -79.77148 | 35986 ft | 517 kts | 348° |
| 2026-05-07 05:36 | 10.08726 | -79.78365 | 35986 ft | 517 kts | 348° |
| 2026-05-07 05:36 | 10.15821 | -79.79580 | 35986 ft | 517 kts | 348° |
| 2026-05-07 05:37 | 10.22904 | -79.80795 | 35986 ft | 517 kts | 348° |
| 2026-05-07 05:37 | 10.29978 | -79.82008 | 35986 ft | 517 kts | 348° |
| 2026-05-07 05:38 | 10.37081 | -79.83228 | 35985 ft | 517 kts | 348° |
| 2026-05-07 05:38 | 10.44182 | -79.84433 | 35985 ft | 517 kts | 349° |
| 2026-05-07 05:39 | 10.51284 | -79.85620 | 35980 ft | 519 kts | 349° |
| 2026-05-07 05:39 | 10.58410 | -79.86805 | 35980 ft | 520 kts | 349° |
| 2026-05-07 05:40 | 10.65551 | -79.87990 | 35979 ft | 521 kts | 349° |
| 2026-05-07 05:40 | 10.72699 | -79.89176 | 35979 ft | 521 kts | 349° |
| 2026-05-07 05:41 | 10.78654 | -79.90165 | 35979 ft | 522 kts | 349° |
| 2026-05-07 05:41 | 10.85834 | -79.91358 | 35979 ft | 522 kts | 349° |
| 2026-05-07 05:42 | 10.92991 | -79.92548 | 35980 ft | 522 kts | 349° |
| 2026-05-07 05:42 | 11.00157 | -79.93741 | 35982 ft | 522 kts | 349° |
| 2026-05-07 05:43 | 11.07313 | -79.94932 | 35983 ft | 522 kts | 349° |
| 2026-05-07 05:43 | 11.14474 | -79.96126 | 35991 ft | 522 kts | 349° |
| 2026-05-07 05:44 | 11.21630 | -79.97319 | 35988 ft | 522 kts | 349° |
| 2026-05-07 05:44 | 11.28812 | -79.98519 | 35984 ft | 524 kts | 351° |
| 2026-05-07 05:45 | 11.36021 | -79.99725 | 35985 ft | 526 kts | 352° |
| 2026-05-07 05:45 | 11.43208 | -80.00929 | 35987 ft | 522 kts | 353° |
| 2026-05-07 05:46 | 11.50285 | -80.02115 | 35985 ft | 509 kts | 353° |
| 2026-05-07 05:46 | 11.57188 | -80.03272 | 35984 ft | 500 kts | 352° |
| 2026-05-07 05:47 | 11.64031 | -80.04418 | 35984 ft | 497 kts | 353° |
| 2026-05-07 05:47 | 11.70823 | -80.05554 | 35986 ft | 495 kts | 352° |
| 2026-05-07 05:48 | 11.77586 | -80.06684 | 35989 ft | 491 kts | 352° |
| 2026-05-07 05:48 | 11.84311 | -80.07809 | 35993 ft | 487 kts | 352° |
| 2026-05-07 05:49 | 11.90944 | -80.08920 | 35993 ft | 485 kts | 352° |
| 2026-05-07 05:49 | 11.97630 | -80.10041 | 35993 ft | 484 kts | 352° |
| 2026-05-07 05:50 | 12.04262 | -80.11153 | 35993 ft | 484 kts | 352° |
| 2026-05-07 05:50 | 12.10896 | -80.12267 | 35993 ft | 484 kts | 352° |
| 2026-05-07 05:51 | 12.17518 | -80.13379 | 35993 ft | 483 kts | 352° |
| 2026-05-07 05:51 | 12.24164 | -80.14495 | 35993 ft | 483 kts | 352° |
| 2026-05-07 05:52 | 12.30785 | -80.15609 | 35993 ft | 483 kts | 352° |
| 2026-05-07 05:52 | 12.37415 | -80.16724 | 35993 ft | 483 kts | 352° |
| 2026-05-07 05:53 | 12.44066 | -80.17842 | 35982 ft | 490 kts | 348° |
| 2026-05-07 05:53 | 12.50902 | -80.18995 | 35994 ft | 502 kts | 348° |
| 2026-05-07 05:54 | 12.57848 | -80.20169 | 35995 ft | 510 kts | 348° |
| 2026-05-07 05:54 | 12.64873 | -80.21356 | 35994 ft | 514 kts | 348° |
| 2026-05-07 05:55 | 12.71937 | -80.22549 | 35994 ft | 516 kts | 348° |
| 2026-05-07 05:55 | 12.79017 | -80.23743 | 35994 ft | 517 kts | 348° |
| 2026-05-07 05:56 | 12.86119 | -80.24942 | 35993 ft | 518 kts | 348° |
| 2026-05-07 05:56 | 12.93207 | -80.26139 | 35993 ft | 518 kts | 348° |
| 2026-05-07 05:57 | 13.00324 | -80.27341 | 35993 ft | 518 kts | 348° |
| 2026-05-07 05:57 | 13.07415 | -80.28540 | 35998 ft | 516 kts | 353° |
| 2026-05-07 05:58 | 13.14382 | -80.29728 | 35989 ft | 501 kts | 351° |
| 2026-05-07 05:58 | 13.21200 | -80.30885 | 35986 ft | 493 kts | 352° |
| 2026-05-07 05:59 | 13.27913 | -80.32023 | 35986 ft | 489 kts | 352° |
| 2026-05-07 05:59 | 13.34613 | -80.33157 | 35986 ft | 487 kts | 352° |
| 2026-05-07 06:00 | 13.41288 | -80.34287 | 35987 ft | 485 kts | 352° |
| 2026-05-07 06:00 | 13.47926 | -80.35413 | 35986 ft | 485 kts | 352° |
| 2026-05-07 06:01 | 13.54577 | -80.36541 | 35986 ft | 485 kts | 352° |
| 2026-05-07 06:01 | 13.61191 | -80.37664 | 35987 ft | 484 kts | 352° |
| 2026-05-07 06:02 | 13.67864 | -80.38798 | 35986 ft | 484 kts | 352° |
| 2026-05-07 06:02 | 13.74515 | -80.39930 | 35986 ft | 484 kts | 352° |
| 2026-05-07 06:03 | 13.81163 | -80.41061 | 35986 ft | 484 kts | 352° |
| 2026-05-07 06:03 | 13.87791 | -80.42190 | 35985 ft | 485 kts | 352° |
| 2026-05-07 06:04 | 13.94442 | -80.43324 | 35987 ft | 485 kts | 352° |
| 2026-05-07 06:04 | 14.01090 | -80.44458 | 35987 ft | 485 kts | 352° |
| 2026-05-07 06:05 | 14.07740 | -80.45593 | 35989 ft | 484 kts | 352° |
| 2026-05-07 06:05 | 14.14387 | -80.46728 | 35993 ft | 484 kts | 352° |
| 2026-05-07 06:06 | 14.21024 | -80.47862 | 35993 ft | 484 kts | 352° |
| 2026-05-07 06:06 | 14.27653 | -80.48995 | 35993 ft | 484 kts | 351° |
| 2026-05-07 06:07 | 14.34298 | -80.50132 | 35993 ft | 484 kts | 351° |
| 2026-05-07 06:07 | 14.40926 | -80.51267 | 35994 ft | 484 kts | 351° |
| 2026-05-07 06:08 | 14.47567 | -80.52405 | 35993 ft | 484 kts | 351° |
| 2026-05-07 06:08 | 14.54207 | -80.53543 | 35993 ft | 484 kts | 351° |
| 2026-05-07 06:09 | 14.60827 | -80.54678 | 35993 ft | 484 kts | 351° |
| 2026-05-07 06:09 | 14.67462 | -80.55817 | 35993 ft | 484 kts | 351° |
| 2026-05-07 06:10 | 14.74084 | -80.56955 | 35993 ft | 484 kts | 351° |
| 2026-05-07 06:10 | 14.80730 | -80.58097 | 35993 ft | 484 kts | 351° |
| 2026-05-07 06:11 | 14.87354 | -80.59236 | 35993 ft | 484 kts | 351° |
| 2026-05-07 06:11 | 14.93978 | -80.60377 | 35993 ft | 484 kts | 351° |
| 2026-05-07 06:12 | 15.00619 | -80.61522 | 35993 ft | 484 kts | 351° |
| 2026-05-07 06:12 | 15.07252 | -80.62667 | 35993 ft | 484 kts | 351° |
| 2026-05-07 06:13 | 15.13875 | -80.63811 | 35993 ft | 484 kts | 351° |
| 2026-05-07 06:13 | 15.20509 | -80.64959 | 35993 ft | 484 kts | 351° |
| 2026-05-07 06:14 | 15.27149 | -80.66108 | 35993 ft | 484 kts | 351° |
| 2026-05-07 06:14 | 15.33774 | -80.67256 | 35993 ft | 484 kts | 351° |
| 2026-05-07 06:15 | 15.40396 | -80.68405 | 35993 ft | 484 kts | 351° |
| 2026-05-07 06:15 | 15.47044 | -80.69559 | 35993 ft | 484 kts | 351° |
| 2026-05-07 06:16 | 15.53669 | -80.70709 | 35993 ft | 484 kts | 351° |
| 2026-05-07 06:16 | 15.60314 | -80.71864 | 35993 ft | 484 kts | 351° |
| 2026-05-07 06:17 | 15.66937 | -80.73016 | 35993 ft | 484 kts | 351° |
| 2026-05-07 06:17 | 15.73614 | -80.74175 | 35990 ft | 490 kts | 348° |
| 2026-05-07 06:18 | 15.80358 | -80.75351 | 35994 ft | 496 kts | 348° |
| 2026-05-07 06:18 | 15.87208 | -80.76549 | 35993 ft | 500 kts | 348° |
| 2026-05-07 06:19 | 15.94081 | -80.77750 | 35993 ft | 503 kts | 348° |
| 2026-05-07 06:19 | 16.00973 | -80.78953 | 35992 ft | 505 kts | 348° |
| 2026-05-07 06:20 | 16.07924 | -80.80166 | 35993 ft | 509 kts | 348° |
| 2026-05-07 06:20 | 16.14911 | -80.81386 | 35993 ft | 512 kts | 348° |
| 2026-05-07 06:21 | 16.21969 | -80.82619 | 35993 ft | 515 kts | 348° |
| 2026-05-07 06:21 | 16.29038 | -80.83855 | 35993 ft | 517 kts | 348° |
| 2026-05-07 06:22 | 16.36114 | -80.85092 | 35995 ft | 518 kts | 351° |
| 2026-05-07 06:22 | 16.46603 | -80.86940 | 36032 ft | 504 kts | 352° |
| 2026-05-07 06:23 | 16.53498 | -80.88149 | 36034 ft | 499 kts | 352° |
| 2026-05-07 06:23 | 16.60315 | -80.89343 | 36038 ft | 496 kts | 352° |
| 2026-05-07 06:24 | 16.67112 | -80.90533 | 36043 ft | 494 kts | 352° |
| 2026-05-07 06:24 | 16.73893 | -80.91722 | 36044 ft | 496 kts | 352° |
| 2026-05-07 06:25 | 16.80711 | -80.92917 | 36049 ft | 500 kts | 352° |
| 2026-05-07 06:25 | 16.87603 | -80.94126 | 36046 ft | 506 kts | 351° |
| 2026-05-07 06:26 | 16.94512 | -80.95335 | 36040 ft | 502 kts | 349° |
| 2026-05-07 06:26 | 17.01391 | -80.96545 | 36033 ft | 504 kts | 349° |
| 2026-05-07 06:27 | 17.08338 | -80.97772 | 36037 ft | 509 kts | 349° |
| 2026-05-07 06:27 | 17.15334 | -80.99009 | 36037 ft | 511 kts | 349° |
| 2026-05-07 06:28 | 17.22356 | -81.00251 | 36038 ft | 513 kts | 349° |
| 2026-05-07 06:28 | 17.29380 | -81.01494 | 36038 ft | 512 kts | 348° |
| 2026-05-07 06:29 | 17.36406 | -81.02737 | 36038 ft | 512 kts | 348° |
| 2026-05-07 06:29 | 17.44312 | -81.04136 | 36040 ft | 511 kts | 348° |
| 2026-05-07 06:30 | 17.58269 | -81.06610 | 36041 ft | 509 kts | 348° |
| 2026-05-07 06:30 | 17.72147 | -81.09073 | 36042 ft | 505 kts | 348° |
| 2026-05-07 06:31 | 17.85885 | -81.11517 | 36042 ft | 498 kts | 348° |
| 2026-05-07 06:31 | 17.99502 | -81.13944 | 36044 ft | 493 kts | 349° |
| 2026-05-07 06:32 | 18.12956 | -81.16344 | 36044 ft | 491 kts | 348° |
| 2026-05-07 06:32 | 18.26512 | -81.18766 | 36045 ft | 500 kts | 349° |
| 2026-05-07 06:33 | 18.40136 | -81.21217 | 36044 ft | 495 kts | 352° |
| 2026-05-07 06:33 | 18.53786 | -81.23658 | 36049 ft | 494 kts | 351° |
| 2026-05-07 06:34 | 18.67252 | -81.26072 | 36050 ft | 490 kts | 351° |
| 2026-05-07 06:34 | 18.80641 | -81.28479 | 36052 ft | 489 kts | 351° |
| 2026-05-07 06:35 | 18.91847 | -81.30496 | 36052 ft | 489 kts | 351° |
| 2026-05-07 06:35 | 19.05243 | -81.32912 | 36052 ft | 489 kts | 351° |
| 2026-05-07 06:36 | 19.18636 | -81.35332 | 36052 ft | 489 kts | 351° |
| 2026-05-07 06:36 | 19.32117 | -81.37414 | 36053 ft | 489 kts | 355° |
| 2026-05-07 06:37 | 19.45642 | -81.38463 | 36052 ft | 489 kts | 357° |
| 2026-05-07 06:37 | 19.59207 | -81.39332 | 36052 ft | 489 kts | 358° |
| 2026-05-07 06:38 | 19.72791 | -81.40222 | 36052 ft | 489 kts | 358° |
| 2026-05-07 06:38 | 19.86334 | -81.41140 | 36052 ft | 490 kts | 358° |
| 2026-05-07 06:39 | 19.99980 | -81.41980 | 36053 ft | 491 kts | 0° |
| 2026-05-07 06:39 | 20.13667 | -81.42067 | 36053 ft | 492 kts | 2° |
| 2026-05-07 06:40 | 20.27289 | -81.41952 | 36053 ft | 490 kts | 2° |
| 2026-05-07 06:40 | 20.40858 | -81.41824 | 36052 ft | 487 kts | 359° |
| 2026-05-07 06:41 | 20.54406 | -81.41713 | 36053 ft | 487 kts | 359° |
| 2026-05-07 06:41 | 20.68046 | -81.41613 | 36056 ft | 492 kts | 359° |
| 2026-05-07 06:42 | 20.81645 | -81.41519 | 36057 ft | 486 kts | 0° |
| 2026-05-07 06:42 | 20.95708 | -81.41418 | 36056 ft | 483 kts | 359° |
| 2026-05-07 06:43 | 21.22606 | -81.41226 | 36057 ft | 483 kts | 359° |
| 2026-05-07 06:43 | 21.49357 | -81.41039 | 36054 ft | 483 kts | 359° |
| 2026-05-07 06:44 | 21.76355 | -81.40848 | 36056 ft | 483 kts | 359° |
| 2026-05-07 06:44 | 22.03224 | -81.40656 | 36063 ft | 483 kts | 359° |
| 2026-05-07 06:45 | 22.30073 | -81.40465 | 36070 ft | 482 kts | 359° |
| 2026-05-07 06:45 | 22.56881 | -81.40271 | 36081 ft | 484 kts | 358° |
| 2026-05-07 06:46 | 22.83714 | -81.38010 | 36082 ft | 486 kts | 5° |
| 2026-05-07 06:46 | 23.10518 | -81.34562 | 36082 ft | 486 kts | 4° |
| 2026-05-07 06:47 | 23.37397 | -81.31210 | 36082 ft | 486 kts | 4° |
| 2026-05-07 06:47 | 23.64205 | -81.27848 | 36068 ft | 485 kts | 4° |
| 2026-05-07 06:48 | 23.91027 | -81.24469 | 36062 ft | 485 kts | 3° |
| 2026-05-07 06:48 | 24.14402 | -81.21294 | 35451 ft | 496 kts | 4° |
| 2026-05-07 06:49 | 24.21394 | -81.20289 | 34756 ft | 504 kts | 4° |
| 2026-05-07 06:49 | 24.22149 | -81.20180 | 34680 ft | 505 kts | 4° |
| 2026-05-07 06:49 | 24.25627 | -81.19678 | 34350 ft | 507 kts | 4° |
| 2026-05-07 06:49 | 24.29104 | -81.19174 | 34062 ft | 501 kts | 4° |
| 2026-05-07 06:50 | 24.32544 | -81.18672 | 33783 ft | 496 kts | 4° |
| 2026-05-07 06:50 | 24.35943 | -81.18176 | 33503 ft | 492 kts | 4° |
| 2026-05-07 06:50 | 24.39310 | -81.17684 | 33164 ft | 488 kts | 4° |
| 2026-05-07 06:50 | 24.40660 | -81.17487 | 33017 ft | 486 kts | 4° |
| 2026-05-07 06:51 | 24.43981 | -81.17003 | 32642 ft | 483 kts | 4° |
| 2026-05-07 06:51 | 24.47295 | -81.16522 | 32248 ft | 479 kts | 4° |
| 2026-05-07 06:51 | 24.50594 | -81.16043 | 31847 ft | 476 kts | 4° |
| 2026-05-07 06:51 | 24.53860 | -81.15571 | 31448 ft | 472 kts | 4° |
| 2026-05-07 06:52 | 24.57106 | -81.15118 | 31047 ft | 468 kts | 4° |
| 2026-05-07 06:52 | 24.60274 | -81.14712 | 30652 ft | 447 kts | 4° |
| 2026-05-07 06:52 | 24.63225 | -81.14355 | 30235 ft | 430 kts | 4° |
| 2026-05-07 06:52 | 24.66222 | -81.14018 | 29809 ft | 434 kts | 4° |
| 2026-05-07 06:53 | 24.69255 | -81.13692 | 29402 ft | 437 kts | 4° |
| 2026-05-07 06:53 | 24.72265 | -81.13375 | 29004 ft | 437 kts | 4° |
| 2026-05-07 06:53 | 24.75305 | -81.13059 | 28602 ft | 437 kts | 5° |
| 2026-05-07 06:53 | 24.78328 | -81.12744 | 28203 ft | 436 kts | 5° |
| 2026-05-07 06:54 | 24.81353 | -81.12429 | 27801 ft | 437 kts | 5° |
| 2026-05-07 06:54 | 24.84346 | -81.11982 | 27400 ft | 435 kts | 11° |
| 2026-05-07 06:54 | 24.87272 | -81.11157 | 26987 ft | 434 kts | 17° |
| 2026-05-07 06:54 | 24.90122 | -81.10093 | 26522 ft | 431 kts | 20° |
| 2026-05-07 06:55 | 24.92893 | -81.08894 | 26015 ft | 425 kts | 22° |
| 2026-05-07 06:55 | 24.95589 | -81.07630 | 25496 ft | 421 kts | 24° |
| 2026-05-07 06:55 | 24.98250 | -81.06326 | 24971 ft | 417 kts | 25° |
| 2026-05-07 06:55 | 25.00880 | -81.05007 | 24447 ft | 414 kts | 25° |
| 2026-05-07 06:56 | 25.03482 | -81.03687 | 23911 ft | 411 kts | 25° |
| 2026-05-07 06:56 | 25.06058 | -81.02378 | 23365 ft | 407 kts | 25° |
| 2026-05-07 06:56 | 25.08626 | -81.01073 | 22814 ft | 404 kts | 24° |
| 2026-05-07 06:56 | 25.11155 | -80.99792 | 22279 ft | 397 kts | 24° |
| 2026-05-07 06:57 | 25.13626 | -80.98545 | 21751 ft | 385 kts | 24° |
| 2026-05-07 06:57 | 25.16054 | -80.97324 | 21224 ft | 382 kts | 25° |
| 2026-05-07 06:57 | 25.18460 | -80.96119 | 20699 ft | 378 kts | 24° |
| 2026-05-07 06:57 | 25.20848 | -80.94924 | 20172 ft | 376 kts | 22° |
| 2026-05-07 06:58 | 25.23223 | -80.93738 | 19646 ft | 374 kts | 22° |
| 2026-05-07 06:58 | 25.25580 | -80.92564 | 19122 ft | 373 kts | 22° |
| 2026-05-07 06:58 | 25.27937 | -80.91391 | 18598 ft | 371 kts | 22° |
| 2026-05-07 06:58 | 25.30284 | -80.90226 | 18053 ft | 370 kts | 26° |
| 2026-05-07 06:59 | 25.32655 | -80.89050 | 17211 ft | 379 kts | 22° |
| 2026-05-07 06:59 | 25.35056 | -80.87857 | 16613 ft | 380 kts | 22° |
| 2026-05-07 06:59 | 25.37465 | -80.86676 | 16159 ft | 376 kts | 22° |
| 2026-05-07 06:59 | 25.39839 | -80.85532 | 15722 ft | 368 kts | 22° |
| 2026-05-07 07:00 | 25.42170 | -80.84449 | 15280 ft | 358 kts | 21° |
| 2026-05-07 07:00 | 25.44454 | -80.83465 | 14831 ft | 349 kts | 19° |
| 2026-05-07 07:00 | 25.46714 | -80.82544 | 14371 ft | 343 kts | 18° |
| 2026-05-07 07:00 | 25.48945 | -80.81667 | 13909 ft | 338 kts | 18° |
| 2026-05-07 07:01 | 25.51141 | -80.80824 | 13445 ft | 333 kts | 18° |
| 2026-05-07 07:01 | 25.53321 | -80.79998 | 12980 ft | 330 kts | 18° |
| 2026-05-07 07:01 | 25.55478 | -80.79186 | 12518 ft | 327 kts | 19° |
| 2026-05-07 07:01 | 25.57628 | -80.78379 | 12055 ft | 324 kts | 19° |
| 2026-05-07 07:02 | 25.59745 | -80.77585 | 11598 ft | 321 kts | 19° |
| 2026-05-07 07:02 | 25.61800 | -80.76682 | 11132 ft | 315 kts | 28° |
| 2026-05-07 07:02 | 25.63625 | -80.75383 | 10664 ft | 309 kts | 39° |
| 2026-05-07 07:02 | 25.65241 | -80.73853 | 10206 ft | 304 kts | 45° |
| 2026-05-07 07:03 | 25.66704 | -80.72207 | 9755 ft | 299 kts | 49° |
| 2026-05-07 07:03 | 25.68076 | -80.70496 | 9303 ft | 294 kts | 51° |
| 2026-05-07 07:03 | 25.69393 | -80.68781 | 8853 ft | 290 kts | 51° |
| 2026-05-07 07:03 | 25.70681 | -80.67078 | 8368 ft | 288 kts | 52° |
| 2026-05-07 07:04 | 25.71958 | -80.65378 | 7869 ft | 286 kts | 52° |
| 2026-05-07 07:04 | 25.73228 | -80.63682 | 7369 ft | 285 kts | 52° |
| 2026-05-07 07:04 | 25.74476 | -80.62009 | 6888 ft | 281 kts | 52° |
| 2026-05-07 07:04 | 25.75676 | -80.60316 | 6381 ft | 276 kts | 55° |
| 2026-05-07 07:05 | 25.76763 | -80.58605 | 5883 ft | 271 kts | 58° |
| 2026-05-07 07:05 | 25.77571 | -80.56974 | 5428 ft | 260 kts | 68° |
| 2026-05-07 07:05 | 25.78037 | -80.55151 | 4919 ft | 234 kts | 83° |
| 2026-05-07 07:05 | 25.78102 | -80.53448 | 4433 ft | 211 kts | 94° |
| 2026-05-07 07:06 | 25.77991 | -80.51892 | 3930 ft | 192 kts | 97° |
| 2026-05-07 07:06 | 25.77886 | -80.50494 | 3425 ft | 176 kts | 95° |
| 2026-05-07 07:06 | 25.77849 | -80.49193 | 3069 ft | 159 kts | 92° |
| 2026-05-07 07:06 | 25.77873 | -80.47976 | 2897 ft | 157 kts | 90° |
| 2026-05-07 07:07 | 25.77927 | -80.46777 | 2740 ft | 155 kts | 89° |
| 2026-05-07 07:07 | 25.77982 | -80.45592 | 2576 ft | 153 kts | 88° |
| 2026-05-07 07:07 | 25.78008 | -80.44423 | 2379 ft | 152 kts | 86° |
| 2026-05-07 07:07 | 25.78047 | -80.43248 | 2108 ft | 154 kts | 84° |
| 2026-05-07 07:08 | 25.78122 | -80.42047 | 1885 ft | 157 kts | 85° |
| 2026-05-07 07:08 | 25.78227 | -80.40836 | 1750 ft | 159 kts | 86° |
| 2026-05-07 07:08 | 25.78313 | -80.39614 | 1595 ft | 160 kts | 88° |
| 2026-05-07 07:08 | 25.78367 | -80.38389 | 1388 ft | 158 kts | 90° |
| 2026-05-07 07:09 | 25.78400 | -80.37191 | 1131 ft | 154 kts | 91° |
| 2026-05-07 07:09 | 25.78430 | -80.36013 | 896 ft | 150 kts | 90° |
| 2026-05-07 07:09 | 25.78468 | -80.34950 | 714 ft | 148 kts | 89° |
| 2026-05-07 07:09 | 25.78473 | -80.34795 | 689 ft | 148 kts | 89° |
| 2026-05-07 07:10 | 25.78497 | -80.34197 | 591 ft | 147 kts | 88° |
| 2026-05-07 07:10 | 25.78539 | -80.33075 | 397 ft | 145 kts | 88° |
| 2026-05-07 07:10 | 25.78562 | -80.32500 | 304 ft | 145 kts | 88° |
| 2026-05-07 07:11 | 25.78599 | -80.31625 | 171 ft | 144 kts | 88° |
| 2026-05-07 07:11 | 25.78613 | -80.31300 | 126 ft | 144 kts | 88° |
| 2026-05-07 07:12 | 25.78631 | -80.30897 | 78 ft | 143 kts | 88° |
| 2026-05-07 07:12 | 25.78676 | -80.29859 | 22 ft | 123 kts | 88° |
| 2026-05-07 07:13 | 25.78706 | -80.29146 | 20 ft | 64 kts | 88° |
| 2026-05-07 07:13 | 25.78724 | -80.28838 | 20 ft | 25 kts | 91° |
| 2026-05-07 07:13 | 25.78723 | -80.28708 | 20 ft | 20 kts | 90° |
| 2026-05-07 07:14 | 25.78726 | -80.28643 | 20 ft | 15 kts | 84° |
| 2026-05-07 07:14 | 25.78740 | -80.28553 | 20 ft | 10 kts | 61° |
| 2026-05-07 07:14 | 25.78786 | -80.28485 | 20 ft | 13 kts | 53° |
| 2026-05-07 07:14 | 25.78840 | -80.28407 | 20 ft | 11 kts | 46° |
| 2026-05-07 07:15 | 25.78877 | -80.28349 | 20 ft | 8 kts | 70° |
| 2026-05-07 07:15 | 25.78881 | -80.28264 | 20 ft | 14 kts | 88° |
| 2026-05-07 07:15 | 25.78886 | -80.28142 | 20 ft | 16 kts | 84° |
| 2026-05-07 07:15 | 25.78878 | -80.28020 | 20 ft | 16 kts | 115° |
| 2026-05-07 07:16 | 25.78859 | -80.27901 | 20 ft | 16 kts | 85° |
| 2026-05-07 07:16 | 25.78863 | -80.27782 | 20 ft | 16 kts | 89° |
| 2026-05-07 07:16 | 25.78876 | -80.27664 | 20 ft | 15 kts | 57° |
| 2026-05-07 07:16 | 25.78941 | -80.27577 | 20 ft | 14 kts | 67° |
| 2026-05-07 07:17 | 25.78970 | -80.27512 | 20 ft | 8 kts | 45° |
| 2026-05-07 07:17 | 25.79021 | -80.27501 | 20 ft | 8 kts | 354° |
| 2026-05-07 07:17 | 25.79060 | -80.27478 | 20 ft | 6 kts | 69° |
| 2026-05-07 07:17 | 25.79056 | -80.27441 | 20 ft | 4 kts | 102° |
| 2026-05-07 07:18 | 25.79054 | -80.27418 | 20 ft | 0 kts | 91° |
| 2026-05-07 07:18 | 25.79054 | -80.27415 | 20 ft | 2 kts | 90° |
| 2026-05-07 07:18 | 25.79054 | -80.27414 | 20 ft | 0 kts | 90° |
| 2026-05-07 07:19 | 25.79054 | -80.27413 | 20 ft | 0 kts | 90° |